Time;durP1;ratioP1;P1;durP2;ratioP2;P2;SDS_P1;SDS_P2;PMS_P1;PMS_P2;Temp;Humidity;BMP_temperature;BMP_pressure;BME280_temperature;BME280_humidity;BME280_pressure;Samples;Min_cycle;Max_cycle;Signal;HPM_P1;HPM_P2
2022/04/08 00:01:22;;;;;;;;;;;5.40;99.90;;;;;;5092881;28;19969;-62
2022/04/08 00:03:48;;;;;;;;;;;5.40;99.90;;;;;;5092568;28;19950;-62
2022/04/08 00:06:14;;;;;;;;;;;5.40;99.90;;;;;;5093356;28;19956;-62
2022/04/08 00:08:40;;;;;;;;;;;5.30;99.90;;;;;;5092776;28;19924;-63
2022/04/08 00:11:06;;;;;;;;;;;5.40;99.90;;;;;;5091067;28;19931;-62
2022/04/08 00:13:31;;;;;;;;;;;5.40;99.90;;;;;;5092914;28;19924;-62
2022/04/08 00:15:57;;;;;;;;;;;5.40;99.90;;;;;;5092391;28;19931;-62
2022/04/08 00:18:23;;;;;;;;;;;5.30;99.90;;;;;;5092278;28;20285;-62
2022/04/08 00:20:49;;;;;;;;;;;5.40;99.90;;;;;;5092992;28;20332;-62
2022/04/08 00:23:15;;;;;;;;;;;5.40;99.90;;;;;;5099836;28;19924;-62
2022/04/08 00:25:41;;;;;;;;;;;5.40;99.90;;;;;;5095646;28;19928;-62
2022/04/08 00:28:07;;;;;;;;;;;5.40;99.90;;;;;;5097031;28;19964;-63
2022/04/08 00:30:32;;;;;;;;;;;5.30;99.90;;;;;;5095072;28;19931;-62
2022/04/08 00:32:58;;;;;;;;;;;5.30;99.90;;;;;;5095925;28;19930;-62
2022/04/08 00:35:24;;;;;;;;;;;5.30;99.90;;;;;;5083385;28;20314;-63
2022/04/08 00:37:50;;;;;;;;;;;5.20;99.90;;;;;;5074695;28;19970;-63
2022/04/08 00:40:16;;;;;;;;;;;5.10;99.90;;;;;;5075320;28;19925;-63
2022/04/08 00:42:43;;;;;;;;;;;4.90;99.90;;;;;;5092689;28;19931;-63
2022/04/08 00:45:09;;;;;;;;;;;4.60;99.90;;;;;;5095664;28;19925;-63
2022/04/08 00:47:36;;;;;;;;;;;4.40;99.90;;;;;;5096450;28;19924;-63
2022/04/08 00:50:03;;;;;;;;;;;4.30;99.90;;;;;;5096440;28;20009;-63
2022/04/08 00:52:30;;;;;;;;;;;4.20;99.90;;;;;;5094775;28;19931;-63
2022/04/08 00:54:55;;;;;;;;;;;4.50;99.90;;;;;;5095047;28;20022;-62
2022/04/08 00:57:21;;;;;;;;;;;4.10;99.90;;;;;;5096429;28;20031;-63
2022/04/08 00:59:48;;;;;;;;;;;4.00;99.90;;;;;;5095024;28;19979;-63
2022/04/08 01:02:15;;;;;;;;;;;3.90;99.90;;;;;;5096222;28;19924;-63
2022/04/08 01:04:41;;;;;;;;;;;3.80;99.90;;;;;;5096220;28;19932;-63
2022/04/08 01:07:06;;;;;;;;;;;3.80;99.90;;;;;;5093758;28;20271;-63
2022/04/08 01:09:32;;;;;;;;;;;4.20;99.90;;;;;;5094283;28;19928;-63
2022/04/08 01:11:58;;;;;;;;;;;3.80;99.90;;;;;;5094540;28;19928;-63
2022/04/08 01:14:23;;;;;;;;;;;3.80;99.90;;;;;;5094806;28;19924;-62
2022/04/08 01:16:49;;;;;;;;;;;3.80;99.90;;;;;;5094888;28;20007;-63
2022/04/08 01:19:14;;;;;;;;;;;3.80;99.90;;;;;;5095825;28;19975;-62
2022/04/08 01:21:40;;;;;;;;;;;3.70;99.90;;;;;;5094448;28;19928;-62
2022/04/08 01:24:11;;;;;;;;;;;3.70;99.90;;;;;;5099001;28;19946;-63
2022/04/08 01:26:38;;;;;;;;;;;3.70;99.90;;;;;;5095624;28;19931;-63
2022/04/08 01:29:03;;;;;;;;;;;3.70;99.90;;;;;;5094833;28;19924;-63
2022/04/08 01:31:30;;;;;;;;;;;3.70;99.90;;;;;;5095179;28;19924;-62
2022/04/08 01:33:56;;;;;;;;;;;3.70;99.90;;;;;;5092876;28;20279;-62
2022/04/08 01:36:21;;;;;;;;;;;3.80;99.90;;;;;;5085059;28;19924;-62
2022/04/08 01:38:47;;;;;;;;;;;3.80;99.90;;;;;;5095304;28;20294;-62
2022/04/08 01:41:16;;;;;;;;;;;3.80;99.90;;;;;;5089450;28;20424;-62
2022/04/08 01:43:42;;;;;;;;;;;3.80;99.90;;;;;;5075081;28;20367;-62
2022/04/08 01:46:08;;;;;;;;;;;4.00;99.90;;;;;;5094099;28;20031;-62
2022/04/08 01:48:34;;;;;;;;;;;4.40;99.90;;;;;;5094957;28;20103;-62
2022/04/08 01:50:59;;;;;;;;;;;4.50;99.90;;;;;;5094789;28;19975;-62
2022/04/08 01:53:25;;;;;;;;;;;3.80;99.90;;;;;;5091572;28;19925;-62
2022/04/08 01:55:51;;;;;;;;;;;3.70;99.90;;;;;;5074392;28;19937;-62
2022/04/08 01:58:16;;;;;;;;;;;3.70;99.90;;;;;;5073258;28;19928;-62
2022/04/08 02:00:42;;;;;;;;;;;3.70;99.90;;;;;;5074741;28;19961;-62
2022/04/08 02:03:09;;;;;;;;;;;3.70;99.90;;;;;;5086996;28;19924;-62
2022/04/08 02:05:35;;;;;;;;;;;3.70;99.90;;;;;;5094593;28;19977;-62
2022/04/08 02:08:00;;;;;;;;;;;3.60;99.90;;;;;;5094816;28;19932;-62
2022/04/08 02:10:26;;;;;;;;;;;3.60;99.90;;;;;;5094036;28;19928;-62
2022/04/08 02:12:52;;;;;;;;;;;4.00;99.90;;;;;;5094237;28;19931;-62
2022/04/08 02:15:22;;;;;;;;;;;3.90;99.90;;;;;;5093520;28;19925;-62
2022/04/08 02:17:47;;;;;;;;;;;3.60;99.90;;;;;;5092677;28;19924;-62
2022/04/08 02:20:13;;;;;;;;;;;3.60;99.90;;;;;;5094091;28;19924;-62
2022/04/08 02:22:39;;;;;;;;;;;3.70;99.90;;;;;;5099428;28;20366;-62
2022/04/08 02:25:05;;;;;;;;;;;3.70;99.90;;;;;;5093963;28;19924;-62
2022/04/08 02:27:32;;;;;;;;;;;3.70;99.90;;;;;;5094666;28;19928;-62
2022/04/08 02:29:58;;;;;;;;;;;3.70;99.90;;;;;;5093934;28;19982;-62
2022/04/08 02:32:24;;;;;;;;;;;3.70;99.90;;;;;;5092314;28;20436;-62
2022/04/08 02:34:50;;;;;;;;;;;3.70;99.90;;;;;;5067834;28;19924;-62
2022/04/08 02:37:16;;;;;;;;;;;3.80;99.90;;;;;;5076236;28;20007;-62
2022/04/08 02:39:42;;;;;;;;;;;3.70;99.90;;;;;;5092123;28;20073;-62
2022/04/08 02:42:07;;;;;;;;;;;3.80;99.90;;;;;;5094236;28;20068;-62
2022/04/08 02:44:33;;;;;;;;;;;3.70;99.90;;;;;;5093222;28;19928;-62
2022/04/08 02:46:59;;;;;;;;;;;3.80;99.90;;;;;;5093874;28;19950;-62
2022/04/08 02:49:24;;;;;;;;;;;3.70;99.90;;;;;;5094318;28;20411;-62
2022/04/08 02:51:50;;;;;;;;;;;3.70;99.90;;;;;;5091572;28;19927;-62
2022/04/08 02:54:15;;;;;;;;;;;3.70;99.90;;;;;;5083756;28;19924;-62
2022/04/08 02:56:41;;;;;;;;;;;3.70;99.90;;;;;;5089565;28;20381;-62
2022/04/08 02:59:07;;;;;;;;;;;3.80;99.90;;;;;;5093169;28;19924;-62
2022/04/08 03:01:33;;;;;;;;;;;3.80;99.90;;;;;;5092720;28;19924;-62
2022/04/08 03:03:59;;;;;;;;;;;3.80;99.90;;;;;;5092221;28;20325;-63
2022/04/08 03:06:26;;;;;;;;;;;4.00;99.90;;;;;;5091413;28;19924;-63
2022/04/08 03:08:52;;;;;;;;;;;3.70;99.90;;;;;;5094078;28;19935;-64
2022/04/08 03:11:17;;;;;;;;;;;3.60;99.90;;;;;;5092567;28;19924;-64
2022/04/08 03:13:43;;;;;;;;;;;3.40;99.90;;;;;;5092163;28;20464;-64
2022/04/08 03:16:09;;;;;;;;;;;3.20;99.90;;;;;;5093794;28;19924;-63
2022/04/08 03:18:34;;;;;;;;;;;3.20;99.90;;;;;;5093666;28;19924;-63
2022/04/08 03:21:00;;;;;;;;;;;3.20;99.90;;;;;;5082345;28;19977;-64
2022/04/08 03:23:25;;;;;;;;;;;3.30;99.90;;;;;;5095503;28;20018;-64
2022/04/08 03:25:51;;;;;;;;;;;3.30;99.90;;;;;;5093746;28;20429;-64
2022/04/08 03:28:16;;;;;;;;;;;3.20;99.90;;;;;;5092674;28;20052;-63
2022/04/08 03:30:42;;;;;;;;;;;3.20;99.90;;;;;;5093012;28;19971;-63
2022/04/08 03:33:08;;;;;;;;;;;3.20;99.90;;;;;;5093505;28;20015;-63
2022/04/08 03:35:34;;;;;;;;;;;3.20;99.90;;;;;;5077897;28;20035;-63
2022/04/08 03:38:00;;;;;;;;;;;3.10;99.90;;;;;;5073427;28;20390;-62
2022/04/08 03:40:26;;;;;;;;;;;3.20;99.90;;;;;;5086036;28;20003;-62
2022/04/08 03:42:51;;;;;;;;;;;3.20;99.90;;;;;;5072998;28;19929;-62
2022/04/08 03:45:17;;;;;;;;;;;3.10;99.90;;;;;;5072089;28;19924;-62
2022/04/08 03:47:42;;;;;;;;;;;3.00;99.90;;;;;;5072844;28;19929;-62
2022/04/08 03:50:08;;;;;;;;;;;2.90;99.90;;;;;;5092201;28;19930;-62
2022/04/08 03:52:34;;;;;;;;;;;2.90;99.90;;;;;;5093236;28;19928;-62
2022/04/08 03:55:01;;;;;;;;;;;2.90;99.90;;;;;;5092652;28;19977;-62
2022/04/08 03:57:27;;;;;;;;;;;2.90;99.90;;;;;;5125303;27;19924;-62
2022/04/08 03:59:53;;;;;;;;;;;3.00;99.90;;;;;;5097478;28;19927;-62
2022/04/08 04:02:20;;;;;;;;;;;3.40;99.90;;;;;;5078360;28;19932;-62
2022/04/08 04:04:45;;;;;;;;;;;2.90;99.90;;;;;;5097159;28;19927;-63
2022/04/08 04:07:11;;;;;;;;;;;2.90;99.90;;;;;;5097033;28;19928;-63
2022/04/08 04:09:37;;;;;;;;;;;2.90;99.90;;;;;;5096567;28;19924;-63
2022/04/08 04:12:03;;;;;;;;;;;2.80;99.90;;;;;;5096642;28;19928;-62
2022/04/08 04:14:29;;;;;;;;;;;2.80;99.90;;;;;;5095445;28;19924;-63
2022/04/08 04:16:54;;;;;;;;;;;2.90;99.90;;;;;;5096248;28;19920;-63
2022/04/08 04:19:20;;;;;;;;;;;2.90;99.90;;;;;;5096830;28;20447;-63
2022/04/08 04:21:47;;;;;;;;;;;2.90;99.90;;;;;;5097298;28;20294;-63
2022/04/08 04:24:13;;;;;;;;;;;2.90;99.90;;;;;;5098120;28;19920;-63
2022/04/08 04:26:38;;;;;;;;;;;2.90;99.90;;;;;;5096789;28;19931;-63
2022/04/08 04:29:04;;;;;;;;;;;2.90;99.90;;;;;;5095789;28;20375;-62
2022/04/08 04:31:30;;;;;;;;;;;2.90;99.90;;;;;;5095763;28;19970;-63
2022/04/08 04:33:55;;;;;;;;;;;3.00;99.90;;;;;;5095398;28;20010;-62
2022/04/08 04:36:21;;;;;;;;;;;3.00;99.90;;;;;;5076483;28;19928;-63
2022/04/08 04:38:47;;;;;;;;;;;3.50;99.90;;;;;;5075709;28;20007;-62
2022/04/08 04:41:13;;;;;;;;;;;3.10;99.90;;;;;;5081280;28;20396;-62
2022/04/08 04:43:38;;;;;;;;;;;3.10;99.90;;;;;;5095086;28;19927;-62
2022/04/08 04:46:04;;;;;;;;;;;3.20;99.90;;;;;;5095927;28;19924;-62
2022/04/08 04:48:30;;;;;;;;;;;3.20;99.90;;;;;;5096365;28;19928;-63
2022/04/08 04:50:56;;;;;;;;;;;3.20;99.90;;;;;;5096023;28;20322;-62
2022/04/08 04:53:23;;;;;;;;;;;3.50;99.90;;;;;;5093067;28;19924;-62
2022/04/08 04:55:48;;;;;;;;;;;3.10;99.90;;;;;;5074790;28;19921;-62
2022/04/08 04:58:14;;;;;;;;;;;3.00;99.90;;;;;;5073917;28;20286;-62
2022/04/08 05:00:39;;;;;;;;;;;3.00;99.90;;;;;;5092484;28;19931;-62
2022/04/08 05:03:06;;;;;;;;;;;2.90;99.90;;;;;;5095722;28;19928;-62
2022/04/08 05:05:31;;;;;;;;;;;2.90;99.90;;;;;;5095298;28;20784;-62
2022/04/08 05:08:00;;;;;;;;;;;3.20;99.90;;;;;;5095740;28;19920;-62
2022/04/08 05:10:26;;;;;;;;;;;3.30;99.90;;;;;;5096018;28;19928;-62
2022/04/08 05:12:51;;;;;;;;;;;2.90;99.90;;;;;;5094912;28;20434;-62
2022/04/08 05:15:17;;;;;;;;;;;3.00;99.90;;;;;;5095998;28;19975;-62
2022/04/08 05:17:44;;;;;;;;;;;3.10;99.90;;;;;;5095676;28;19924;-62
2022/04/08 05:20:10;;;;;;;;;;;3.10;99.90;;;;;;5094531;28;20503;-62
2022/04/08 05:22:36;;;;;;;;;;;3.10;99.90;;;;;;5100463;28;19940;-62
2022/04/08 05:25:01;;;;;;;;;;;3.20;99.90;;;;;;5095981;28;20495;-62
2022/04/08 05:27:27;;;;;;;;;;;3.20;99.90;;;;;;5094675;28;19979;-62
2022/04/08 05:29:53;;;;;;;;;;;3.20;99.90;;;;;;5094277;28;20294;-62
2022/04/08 05:32:18;;;;;;;;;;;3.60;99.90;;;;;;5095769;28;20263;-62
2022/04/08 05:34:44;;;;;;;;;;;3.20;99.90;;;;;;5092462;28;19924;-62
2022/04/08 05:37:12;;;;;;;;;;;3.10;99.90;;;;;;5095363;28;19993;-62
2022/04/08 05:39:38;;;;;;;;;;;3.10;99.90;;;;;;5095332;28;19931;-62
2022/04/08 05:42:05;;;;;;;;;;;3.00;99.90;;;;;;5081355;28;19925;-62
2022/04/08 05:44:31;;;;;;;;;;;3.00;99.90;;;;;;5088751;28;20301;-62
2022/04/08 05:46:56;;;;;;;;;;;3.00;99.90;;;;;;5095494;28;19924;-62
2022/04/08 05:49:22;;;;;;;;;;;3.00;99.90;;;;;;5094383;28;19950;-62
2022/04/08 05:51:48;;;;;;;;;;;3.20;99.90;;;;;;5095000;28;19924;-62
2022/04/08 05:54:13;;;;;;;;;;;3.10;99.90;;;;;;5085207;28;20011;-62
2022/04/08 05:56:39;;;;;;;;;;;3.10;99.90;;;;;;5073959;28;19928;-62
2022/04/08 05:59:04;;;;;;;;;;;3.10;99.90;;;;;;5073571;28;19924;-62
2022/04/08 06:01:30;;;;;;;;;;;3.20;99.90;;;;;;5082802;28;19931;-62
2022/04/08 06:03:56;;;;;;;;;;;3.30;99.90;;;;;;5093518;28;20399;-62
2022/04/08 06:06:21;;;;;;;;;;;3.50;99.90;;;;;;5094833;28;20377;-62
2022/04/08 06:08:47;;;;;;;;;;;3.50;99.90;;;;;;5092864;28;19925;-62
2022/04/08 06:11:13;;;;;;;;;;;3.50;99.90;;;;;;5090535;28;19924;-62
2022/04/08 06:13:38;;;;;;;;;;;3.80;99.90;;;;;;5081544;28;19932;-62
2022/04/08 06:16:04;;;;;;;;;;;3.50;99.90;;;;;;5082096;28;19924;-62
2022/04/08 06:18:29;;;;;;;;;;;3.50;99.90;;;;;;5081394;28;20306;-62
2022/04/08 06:20:55;;;;;;;;;;;3.60;99.90;;;;;;5094385;28;19924;-62
2022/04/08 06:23:21;;;;;;;;;;;3.70;99.90;;;;;;5097787;28;19928;-62
2022/04/08 06:25:48;;;;;;;;;;;3.80;99.90;;;;;;5094107;28;19920;-63
2022/04/08 06:28:13;;;;;;;;;;;3.80;99.90;;;;;;5094092;28;19938;-62
2022/04/08 06:30:40;;;;;;;;;;;3.80;99.90;;;;;;5093903;28;19920;-62
2022/04/08 06:33:06;;;;;;;;;;;3.80;99.90;;;;;;5094120;28;20034;-62
2022/04/08 06:35:32;;;;;;;;;;;3.90;99.90;;;;;;5078790;28;19932;-62
2022/04/08 06:38:02;;;;;;;;;;;4.10;99.90;;;;;;5090973;28;19924;-63
2022/04/08 06:40:28;;;;;;;;;;;4.10;99.90;;;;;;5092527;28;20366;-63
2022/04/08 06:42:56;;;;;;;;;;;4.10;99.90;;;;;;5073260;28;20354;-63
2022/04/08 06:45:23;;;;;;;;;;;4.10;99.90;;;;;;5077569;28;20397;-63
2022/04/08 06:47:49;;;;;;;;;;;4.00;99.90;;;;;;5094127;28;19967;-63
2022/04/08 06:50:15;;;;;;;;;;;3.90;99.90;;;;;;5094058;28;20281;-63
2022/04/08 06:52:41;;;;;;;;;;;4.00;99.90;;;;;;5091902;28;19990;-63
2022/04/08 06:55:07;;;;;;;;;;;4.10;99.90;;;;;;5089718;28;19924;-63
2022/04/08 06:57:33;;;;;;;;;;;4.20;99.90;;;;;;5093988;28;19928;-63
2022/04/08 06:59:59;;;;;;;;;;;4.70;99.90;;;;;;5091822;28;20335;-63
2022/04/08 07:02:24;;;;;;;;;;;3.90;99.90;;;;;;5092294;28;19924;-63
2022/04/08 07:04:51;;;;;;;;;;;4.00;99.90;;;;;;5072866;28;19924;-63
2022/04/08 07:07:17;;;;;;;;;;;4.00;99.90;;;;;;5073487;28;20294;-63
2022/04/08 07:09:42;;;;;;;;;;;4.10;99.90;;;;;;5073130;28;19925;-63
2022/04/08 07:12:08;;;;;;;;;;;4.10;99.90;;;;;;5078533;28;19931;-63
2022/04/08 07:14:33;;;;;;;;;;;4.50;99.90;;;;;;5093984;28;19986;-63
2022/04/08 07:16:59;;;;;;;;;;;4.30;99.90;;;;;;5093315;28;20022;-63
2022/04/08 07:19:25;;;;;;;;;;;4.50;99.90;;;;;;5093016;28;20010;-63
2022/04/08 07:21:50;;;;;;;;;;;4.70;99.90;;;;;;5094621;28;19928;-63
2022/04/08 07:24:16;;;;;;;;;;;4.60;99.90;;;;;;5095071;28;20398;-63
2022/04/08 07:26:42;;;;;;;;;;;4.50;99.90;;;;;;5092623;28;19928;-63
2022/04/08 07:29:08;;;;;;;;;;;4.50;99.90;;;;;;5093366;28;19986;-63
2022/04/08 07:31:34;;;;;;;;;;;4.50;99.90;;;;;;5092415;28;19924;-63
2022/04/08 07:34:00;;;;;;;;;;;4.40;99.90;;;;;;5089867;28;19939;-63
2022/04/08 07:36:26;;;;;;;;;;;4.50;99.90;;;;;;5073140;28;20276;-63
2022/04/08 07:38:52;;;;;;;;;;;4.70;99.90;;;;;;5082292;28;19970;-63
2022/04/08 07:41:18;;;;;;;;;;;4.80;99.90;;;;;;5086220;28;19994;-63
2022/04/08 07:43:43;;;;;;;;;;;5.00;99.90;;;;;;5073283;28;19931;-63
2022/04/08 07:46:09;;;;;;;;;;;5.10;99.90;;;;;;5073063;28;20295;-61
2022/04/08 07:48:35;;;;;;;;;;;5.20;99.90;;;;;;5088812;28;19925;-61
2022/04/08 07:51:00;;;;;;;;;;;5.40;99.90;;;;;;5093341;28;19952;-64
2022/04/08 07:53:26;;;;;;;;;;;5.60;99.90;;;;;;5093087;28;19932;-62
2022/04/08 07:55:52;;;;;;;;;;;5.70;99.90;;;;;;5092340;28;20336;-62
2022/04/08 07:58:18;;;;;;;;;;;5.60;99.90;;;;;;5093380;28;20007;-64
2022/04/08 08:00:43;;;;;;;;;;;5.60;99.90;;;;;;5092779;28;19978;-61
2022/04/08 08:03:09;;;;;;;;;;;5.70;99.90;;;;;;5092457;28;19924;-61
2022/04/08 08:05:35;;;;;;;;;;;5.80;99.90;;;;;;5092744;28;19932;-62
2022/04/08 08:08:01;;;;;;;;;;;5.80;99.90;;;;;;5092927;28;20302;-61
2022/04/08 08:10:28;;;;;;;;;;;5.90;99.90;;;;;;5092158;28;20041;-61
2022/04/08 08:12:55;;;;;;;;;;;6.00;99.90;;;;;;5092956;28;20052;-62
2022/04/08 08:15:21;;;;;;;;;;;5.90;99.90;;;;;;5092139;28;19993;-62
2022/04/08 08:17:47;;;;;;;;;;;5.90;99.90;;;;;;5093002;28;20378;-62
2022/04/08 08:20:13;;;;;;;;;;;5.70;99.90;;;;;;5092868;28;19954;-61
2022/04/08 08:22:39;;;;;;;;;;;6.20;99.90;;;;;;5094329;28;19969;-62
2022/04/08 08:25:06;;;;;;;;;;;5.70;99.90;;;;;;5092656;28;20016;-61
2022/04/08 08:27:38;;;;;;;;;;;5.70;99.90;;;;;;5091583;28;19928;-62
2022/04/08 08:30:05;;;;;;;;;;;5.80;99.90;;;;;;5090879;28;19931;-61
2022/04/08 08:32:30;;;;;;;;;;;6.00;99.90;;;;;;5092232;28;20313;-62
2022/04/08 08:34:56;;;;;;;;;;;6.20;99.90;;;;;;5083896;28;19924;-62
2022/04/08 08:37:22;;;;;;;;;;;6.50;99.90;;;;;;5071687;28;20397;-61
2022/04/08 08:39:47;;;;;;;;;;;6.60;99.90;;;;;;5073058;28;19936;-62
2022/04/08 08:42:13;;;;;;;;;;;6.70;99.90;;;;;;5079210;28;19925;-62
2022/04/08 08:44:39;;;;;;;;;;;6.60;99.90;;;;;;5075696;28;19927;-62
2022/04/08 08:47:09;;;;;;;;;;;6.40;99.90;;;;;;5074546;28;19924;-62
2022/04/08 08:49:35;;;;;;;;;;;6.10;99.90;;;;;;5084878;28;20378;-63
2022/04/08 08:52:02;;;;;;;;;;;5.60;99.90;;;;;;5095274;28;19928;-63
2022/04/08 08:54:28;;;;;;;;;;;5.50;99.90;;;;;;5084384;28;20007;-63
2022/04/08 08:56:54;;;;;;;;;;;5.30;99.90;;;;;;5074970;28;19972;-62
2022/04/08 08:59:19;;;;;;;;;;;5.20;99.90;;;;;;5091519;28;19924;-62
2022/04/08 09:01:45;;;;;;;;;;;5.20;99.90;;;;;;5096126;28;20416;-62
2022/04/08 09:04:11;;;;;;;;;;;5.30;99.90;;;;;;5096353;28;19928;-62
2022/04/08 09:06:41;;;;;;;;;;;5.30;99.90;;;;;;5095333;28;19931;-62
2022/04/08 09:09:07;;;;;;;;;;;5.40;99.90;;;;;;5095966;28;20010;-62
2022/04/08 09:11:33;;;;;;;;;;;5.40;99.90;;;;;;5095043;28;20053;-62
2022/04/08 09:14:01;;;;;;;;;;;5.50;99.90;;;;;;5094544;28;20298;-62
2022/04/08 09:16:29;;;;;;;;;;;5.60;99.90;;;;;;5093995;28;19932;-62
2022/04/08 09:18:56;;;;;;;;;;;5.60;99.90;;;;;;5093714;28;19924;-64
2022/04/08 09:21:22;;;;;;;;;;;5.80;99.90;;;;;;5090613;28;19977;-63
2022/04/08 09:23:48;;;;;;;;;;;5.90;99.90;;;;;;5089606;28;19996;-62
2022/04/08 09:26:14;;;;;;;;;;;6.10;99.90;;;;;;5066414;28;20038;-62
2022/04/08 09:28:41;;;;;;;;;;;6.40;99.90;;;;;;5074353;28;19924;-62
2022/04/08 09:31:15;;;;;;;;;;;6.60;99.90;;;;;;5074869;28;19932;-62
2022/04/08 09:33:46;;;;;;;;;;;6.60;99.90;;;;;;5080680;28;19929;-62
2022/04/08 09:36:12;;;;;;;;;;;6.60;99.90;;;;;;5095410;28;20291;-62
2022/04/08 09:38:47;;;;;;;;;;;6.60;99.90;;;;;;5094175;28;19931;-62
2022/04/08 09:41:13;;;;;;;;;;;6.60;99.90;;;;;;5089200;28;19931;-62
2022/04/08 09:43:39;;;;;;;;;;;6.50;99.90;;;;;;5092263;28;19924;-62
2022/04/08 09:46:12;;;;;;;;;;;7.00;99.90;;;;;;5094950;28;19950;-62
2022/04/08 09:48:38;;;;;;;;;;;6.80;99.90;;;;;;5094880;28;20298;-62
2022/04/08 09:51:04;;;;;;;;;;;7.00;99.90;;;;;;5090399;28;19931;-62
2022/04/08 09:53:30;;;;;;;;;;;6.70;99.90;;;;;;5085869;28;19978;-62
2022/04/08 09:55:56;;;;;;;;;;;6.40;99.90;;;;;;5083509;28;19924;-62
2022/04/08 09:58:23;;;;;;;;;;;6.20;99.90;;;;;;5085564;28;19932;-62
2022/04/08 10:00:49;;;;;;;;;;;6.40;99.90;;;;;;5083981;28;20007;-62
2022/04/08 10:03:14;;;;;;;;;;;6.50;99.90;;;;;;5090737;28;20466;-62
2022/04/08 10:05:40;;;;;;;;;;;6.70;99.90;;;;;;5094948;28;19993;-62
2022/04/08 10:08:06;;;;;;;;;;;6.90;99.90;;;;;;5092492;28;19924;-62
2022/04/08 10:10:42;;;;;;;;;;;7.20;99.90;;;;;;5094825;28;20018;-62
2022/04/08 10:13:19;;;;;;;;;;;7.30;99.90;;;;;;5093344;28;19924;-62
2022/04/08 10:15:55;;;;;;;;;;;7.40;99.90;;;;;;5093269;28;20367;-62
2022/04/08 10:18:20;;;;;;;;;;;7.40;99.90;;;;;;5087791;28;20522;-62
2022/04/08 10:20:46;;;;;;;;;;;7.50;99.90;;;;;;5085073;28;19928;-62
2022/04/08 10:23:14;;;;;;;;;;;8.10;99.90;;;;;;5092389;28;20346;-62
2022/04/08 10:25:41;;;;;;;;;;;7.60;99.90;;;;;;5094086;28;19978;-62
2022/04/08 10:28:07;;;;;;;;;;;8.10;99.90;;;;;;5094506;28;20385;-62
2022/04/08 10:30:35;;;;;;;;;;;8.60;99.90;;;;;;5093713;28;19920;-62
2022/04/08 10:33:02;;;;;;;;;;;9.20;99.90;;;;;;5094552;28;20016;-62
2022/04/08 10:35:28;;;;;;;;;;;9.30;99.90;;;;;;5087253;28;19939;-62
2022/04/08 10:37:54;;;;;;;;;;;8.80;99.90;;;;;;5084883;28;19931;-62
2022/04/08 10:40:20;;;;;;;;;;;9.90;99.90;;;;;;5084568;28;19975;-62
2022/04/08 10:42:56;;;;;;;;;;;9.70;99.90;;;;;;5091582;28;19971;-62
2022/04/08 10:45:22;;;;;;;;;;;9.20;99.90;;;;;;5092283;28;19936;-62
2022/04/08 10:47:48;;;;;;;;;;;8.40;99.90;;;;;;5093263;28;19950;-62
2022/04/08 10:50:23;;;;;;;;;;;7.80;99.90;;;;;;5093401;28;20018;-62
2022/04/08 10:52:48;;;;;;;;;;;7.30;99.90;;;;;;5093287;28;19924;-62
2022/04/08 10:55:14;;;;;;;;;;;7.20;99.90;;;;;;5075989;28;19939;-62
2022/04/08 10:57:40;;;;;;;;;;;7.50;99.90;;;;;;5073186;28;19967;-62
2022/04/08 11:00:08;;;;;;;;;;;8.00;99.90;;;;;;5073603;28;20385;-62
2022/04/08 11:02:35;;;;;;;;;;;8.40;99.90;;;;;;5084432;28;19931;-62
2022/04/08 11:05:02;;;;;;;;;;;8.60;99.90;;;;;;5093263;28;19928;-62
2022/04/08 11:07:29;;;;;;;;;;;8.80;99.90;;;;;;5093348;28;20029;-62
2022/04/08 11:09:55;;;;;;;;;;;9.20;99.90;;;;;;5094014;28;19931;-62
2022/04/08 11:12:21;;;;;;;;;;;9.40;99.90;;;;;;5092373;28;19928;-62
2022/04/08 11:14:54;;;;;;;;;;;9.70;99.90;;;;;;5092183;28;20018;-62
2022/04/08 11:17:20;;;;;;;;;;;9.30;99.90;;;;;;5093780;28;19970;-62
2022/04/08 11:19:48;;;;;;;;;;;9.50;99.90;;;;;;5092687;28;19924;-62
2022/04/08 11:22:14;;;;;;;;;;;9.30;99.90;;;;;;5082354;28;19949;-62
2022/04/08 11:24:39;;;;;;;;;;;9.00;99.90;;;;;;5087167;28;20352;-62
2022/04/08 11:27:05;;;;;;;;;;;7.90;99.90;;;;;;5082876;28;19970;-62
2022/04/08 11:29:31;;;;;;;;;;;7.40;99.90;;;;;;5081165;28;19932;-62
2022/04/08 11:32:08;;;;;;;;;;;7.20;99.90;;;;;;5071791;28;19924;-62
2022/04/08 11:34:34;;;;;;;;;;;7.00;99.90;;;;;;5079228;28;19964;-62
2022/04/08 11:37:00;;;;;;;;;;;7.40;99.90;;;;;;5093000;28;19946;-62
2022/04/08 11:39:27;;;;;;;;;;;8.60;99.90;;;;;;5088803;28;19929;-62
2022/04/08 11:41:53;;;;;;;;;;;9.20;99.90;;;;;;5083978;28;20328;-62
2022/04/08 11:44:19;;;;;;;;;;;9.90;99.90;;;;;;5078638;28;20358;-62
2022/04/08 11:46:45;;;;;;;;;;;10.40;99.90;;;;;;5083301;28;19968;-62
2022/04/08 11:49:11;;;;;;;;;;;10.80;99.90;;;;;;5080325;28;20178;-62
2022/04/08 11:51:36;;;;;;;;;;;10.20;99.90;;;;;;5081126;28;19924;-62
2022/04/08 11:54:03;;;;;;;;;;;9.70;99.90;;;;;;5082962;28;19931;-62
2022/04/08 11:56:29;;;;;;;;;;;9.20;99.90;;;;;;5080777;28;19920;-62
2022/04/08 11:58:56;;;;;;;;;;;8.80;99.90;;;;;;5079785;28;20306;-62
2022/04/08 12:01:22;;;;;;;;;;;8.80;99.90;;;;;;5092255;28;19976;-62
2022/04/08 12:03:49;;;;;;;;;;;8.90;99.90;;;;;;5092270;28;20310;-63
2022/04/08 12:06:15;;;;;;;;;;;9.70;99.90;;;;;;5082317;28;19977;-62
2022/04/08 12:08:41;;;;;;;;;;;10.20;99.90;;;;;;5071419;28;19924;-62
2022/04/08 12:11:08;;;;;;;;;;;10.60;98.00;;;;;;5071477;28;20010;-62
2022/04/08 12:13:35;;;;;;;;;;;10.70;97.60;;;;;;5084889;28;20455;-62
2022/04/08 12:16:01;;;;;;;;;;;10.80;95.80;;;;;;5092232;28;20294;-63
2022/04/08 12:18:29;;;;;;;;;;;10.00;98.80;;;;;;5095779;28;19932;-62
2022/04/08 12:20:55;;;;;;;;;;;10.00;99.90;;;;;;5093243;28;20019;-62
2022/04/08 12:23:22;;;;;;;;;;;10.30;98.40;;;;;;5090959;28;19928;-62
2022/04/08 12:25:50;;;;;;;;;;;10.40;97.60;;;;;;5087356;28;19924;-62
2022/04/08 12:28:15;;;;;;;;;;;10.00;98.90;;;;;;5084591;28;19950;-63
2022/04/08 12:30:41;;;;;;;;;;;9.80;99.60;;;;;;5079036;28;19928;-63
2022/04/08 12:33:07;;;;;;;;;;;10.20;99.90;;;;;;5084382;28;20022;-63
2022/04/08 12:35:33;;;;;;;;;;;10.50;99.50;;;;;;5079421;28;20023;-63
2022/04/08 12:37:59;;;;;;;;;;;10.70;99.90;;;;;;5075411;28;19974;-63
2022/04/08 12:40:25;;;;;;;;;;;11.20;99.90;;;;;;5091332;28;19969;-63
2022/04/08 12:42:51;;;;;;;;;;;11.20;99.90;;;;;;5095337;28;20294;-63
2022/04/08 12:45:16;;;;;;;;;;;11.20;97.20;;;;;;5087603;28;20428;-63
2022/04/08 12:47:42;;;;;;;;;;;11.20;98.80;;;;;;5086245;28;20019;-63
2022/04/08 12:50:08;;;;;;;;;;;10.90;99.90;;;;;;5095198;28;19924;-62
2022/04/08 12:52:33;;;;;;;;;;;10.20;99.90;;;;;;5096463;28;19924;-62
2022/04/08 12:54:59;;;;;;;;;;;10.10;99.90;;;;;;5080125;28;19950;-62
2022/04/08 12:57:25;;;;;;;;;;;9.90;99.90;;;;;;5084800;28;20278;-63
2022/04/08 12:59:50;;;;;;;;;;;10.30;99.90;;;;;;5094725;28;20440;-62
2022/04/08 13:02:16;;;;;;;;;;;10.70;99.90;;;;;;5094802;28;19931;-63
2022/04/08 13:04:42;;;;;;;;;;;10.70;98.90;;;;;;5095528;28;19943;-63
2022/04/08 13:07:07;;;;;;;;;;;10.60;98.60;;;;;;5094417;28;20375;-62
2022/04/08 13:09:34;;;;;;;;;;;10.60;96.80;;;;;;5112153;28;20045;-62
2022/04/08 13:12:00;;;;;;;;;;;10.50;97.30;;;;;;5094978;28;19924;-62
2022/04/08 13:14:25;;;;;;;;;;;10.60;96.00;;;;;;5095424;28;19971;-63
2022/04/08 13:16:51;;;;;;;;;;;10.60;96.30;;;;;;5096239;28;19928;-63
2022/04/08 13:19:17;;;;;;;;;;;10.60;97.00;;;;;;5095080;28;19928;-63
2022/04/08 13:21:43;;;;;;;;;;;9.90;99.90;;;;;;5095980;28;19924;-63
2022/04/08 13:24:09;;;;;;;;;;;9.20;99.90;;;;;;5099716;28;20298;-63
2022/04/08 13:26:34;;;;;;;;;;;8.90;99.90;;;;;;5094948;28;19924;-62
2022/04/08 13:29:00;;;;;;;;;;;8.90;99.90;;;;;;5095555;28;19950;-62
2022/04/08 13:31:26;;;;;;;;;;;9.10;99.90;;;;;;5094204;28;19928;-63
2022/04/08 13:33:51;;;;;;;;;;;9.40;99.90;;;;;;5093971;28;19928;-63
2022/04/08 13:36:17;;;;;;;;;;;9.80;99.90;;;;;;5075603;28;19960;-63
2022/04/08 13:38:43;;;;;;;;;;;10.10;99.90;;;;;;5074725;28;19932;-63
2022/04/08 13:41:09;;;;;;;;;;;10.60;99.90;;;;;;5079602;28;19924;-63
2022/04/08 13:43:34;;;;;;;;;;;10.60;96.90;;;;;;5094064;28;19924;-63
2022/04/08 13:46:00;;;;;;;;;;;10.30;99.90;;;;;;5094846;28;19924;-63
2022/04/08 13:48:26;;;;;;;;;;;10.60;99.90;;;;;;5094140;28;20065;-63
2022/04/08 13:50:52;;;;;;;;;;;10.70;98.50;;;;;;5094701;28;19924;-63
2022/04/08 13:53:17;;;;;;;;;;;10.60;99.40;;;;;;5092624;28;19924;-63
2022/04/08 13:55:43;;;;;;;;;;;10.90;99.90;;;;;;5075088;28;20315;-63
2022/04/08 13:58:08;;;;;;;;;;;10.80;98.10;;;;;;5074572;28;19925;-63
2022/04/08 14:00:34;;;;;;;;;;;10.60;98.50;;;;;;5093809;28;20342;-63
2022/04/08 14:03:00;;;;;;;;;;;10.40;97.40;;;;;;5093662;28;19947;-63
2022/04/08 14:05:26;;;;;;;;;;;10.40;98.60;;;;;;5094851;28;19928;-62
2022/04/08 14:07:51;;;;;;;;;;;10.30;98.90;;;;;;5092511;28;20019;-63
2022/04/08 14:10:18;;;;;;;;;;;10.40;99.90;;;;;;5094882;28;19975;-63
2022/04/08 14:12:44;;;;;;;;;;;10.90;95.30;;;;;;5094314;28;20328;-62
2022/04/08 14:15:09;;;;;;;;;;;10.80;96.10;;;;;;5092411;28;19930;-63
2022/04/08 14:17:35;;;;;;;;;;;10.50;97.70;;;;;;5093185;28;19924;-63
2022/04/08 14:20:01;;;;;;;;;;;10.50;94.60;;;;;;5094355;28;19963;-63
2022/04/08 14:22:28;;;;;;;;;;;10.60;94.10;;;;;;5097411;28;19988;-62